Alida, Canada
Current Conditions -  °F | °C
As of 8:00 AM on Thursday 29 Jan 2015 (Local Time) from CYEN Reporting Station
Light Snow Light Snow  
Wind Chill:   Ceiling: 900
Heat Index: 16°   Visibility: 15mi
Dew Point: 14°   Wind: 12mph
Humidity: 93%   Direction: 350°N
Pressure: 30.46"   Gusts: NA
Location:  49.38°N, 101.87°W
Report Text: CYEN 291400Z 35010KT 15SM -SN OVC009 M09/M10 A3046 RMK SC8SLP351
Loading
Personal Weather Stations






























Interactive Weather Map New forecast layout! Learn more

10-Day Weather Forecast

Advertisements
Track Severe Weather on mobile